createdAt,value
2019-04-03T00:02:08.904Z,90.08
2019-04-03T00:07:14.481Z,90.75
2019-04-03T00:12:19.915Z,90.09
2019-04-03T00:17:25.309Z,89.53
2019-04-03T00:22:30.694Z,90.22
2019-04-03T00:27:36.181Z,90.63
2019-04-03T00:32:41.693Z,90.57
2019-04-03T00:37:47.318Z,90.97
2019-04-03T00:42:54.576Z,89.39
2019-04-03T00:47:59.887Z,90.21
2019-04-03T00:53:05.396Z,90.47
2019-04-03T00:58:38.020Z,90.82
2019-04-03T01:03:43.453Z,91.28
2019-04-03T01:08:48.949Z,91.73
2019-04-03T01:13:54.326Z,91.54
2019-04-03T01:18:59.735Z,90.90
2019-04-03T01:24:07.732Z,90.78
2019-04-03T01:29:12.745Z,89.85
2019-04-03T01:34:18.330Z,90.58
2019-04-03T01:39:23.656Z,90.61
2019-04-03T01:44:29.047Z,90.92
2019-04-03T01:49:34.415Z,89.81
2019-04-03T01:54:39.873Z,90.88
2019-04-03T01:59:45.310Z,90.36
2019-04-03T02:04:50.854Z,87.41
2019-04-03T02:09:56.545Z,87.04
2019-04-03T02:15:02.015Z,88.64
2019-04-03T02:20:07.550Z,87.56
2019-04-03T02:25:13.060Z,88.69
2019-04-03T02:30:18.910Z,89.37
2019-04-03T02:35:24.328Z,88.57
2019-04-03T02:40:32.690Z,89.91
2019-04-03T02:45:37.208Z,87.34
2019-04-03T02:50:46.571Z,87.76
2019-04-03T02:55:51.045Z,88.46
2019-04-03T03:00:58.134Z,90.33
2019-04-03T03:06:03.631Z,91.46
2019-04-03T03:11:09.440Z,91.37
2019-04-03T03:16:18.132Z,91.00
2019-04-03T03:21:22.770Z,91.32
2019-04-03T03:26:29.663Z,89.90
2019-04-03T03:32:01.592Z,89.14
2019-04-03T03:36:43.443Z,89.92
2019-04-03T03:41:50.014Z,90.45
2019-04-03T03:46:59.353Z,91.24
2019-04-03T03:52:05.547Z,91.76
2019-04-03T03:57:11.702Z,91.60
2019-04-03T04:02:17.331Z,91.09
2019-04-03T04:07:23.502Z,90.78
2019-04-03T04:12:29.167Z,90.71
2019-04-03T04:17:34.787Z,91.28
2019-04-03T04:22:41.190Z,91.58
2019-04-03T04:27:47.121Z,93.05
2019-04-03T04:32:52.511Z,93.10
2019-04-03T04:37:58.039Z,93.34
2019-04-03T04:43:04.346Z,93.87
2019-04-03T04:48:10.440Z,93.48
2019-04-03T04:53:15.918Z,93.57
2019-04-03T04:58:21.262Z,93.41
2019-04-03T05:03:26.626Z,93.75
2019-04-03T05:08:32.971Z,94.45
2019-04-03T05:13:39.089Z,94.40
2019-04-03T05:18:44.812Z,93.89
2019-04-03T05:23:50.274Z,91.79
2019-04-03T05:28:57.585Z,93.16
2019-04-03T05:34:02.899Z,93.60
2019-04-03T05:39:09.314Z,93.44
2019-04-03T05:44:14.804Z,93.02
2019-04-03T05:49:20.206Z,92.25
2019-04-03T05:54:25.741Z,91.14
2019-04-03T05:59:33.683Z,90.65
2019-04-03T06:04:40.171Z,90.27
2019-04-03T06:09:45.519Z,88.62
2019-04-03T06:14:51.006Z,88.56
2019-04-03T06:19:58.361Z,88.13
2019-04-03T06:25:03.868Z,87.00
2019-04-03T06:30:10.067Z,88.03
2019-04-03T06:35:15.685Z,88.52
2019-04-03T06:40:21.285Z,88.91
2019-04-03T06:45:27.106Z,89.42
2019-04-03T06:50:32.726Z,89.60
2019-04-03T06:55:38.327Z,90.21
2019-04-03T07:00:45.263Z,89.80
2019-04-03T07:05:51.146Z,89.36
2019-04-03T07:10:56.567Z,88.04
2019-04-03T07:16:02.225Z,88.28
2019-04-03T07:21:07.866Z,87.11
2019-04-03T07:26:13.445Z,86.50
2019-04-03T07:31:24.329Z,86.09
2019-04-03T07:36:29.265Z,86.87
2019-04-03T07:41:34.869Z,87.97
2019-04-03T07:46:40.525Z,88.57
2019-04-03T07:51:46.421Z,89.56
2019-04-03T07:56:52.126Z,90.04
2019-04-03T08:01:57.568Z,89.64
2019-04-03T08:07:03.005Z,88.75
2019-04-03T08:12:08.879Z,87.77
2019-04-03T08:17:16.695Z,87.45
2019-04-03T08:22:24.582Z,87.95
2019-04-03T08:27:30.178Z,88.70
2019-04-03T08:32:38.142Z,89.07
2019-04-03T08:37:43.770Z,86.40
2019-04-03T08:42:49.225Z,85.56
2019-04-03T08:47:54.858Z,86.42
2019-04-03T08:53:00.486Z,85.74
2019-04-03T08:58:06.128Z,84.34
2019-04-03T09:03:12.317Z,85.51
2019-04-03T09:08:18.926Z,85.96
2019-04-03T09:13:24.837Z,86.72
2019-04-03T09:18:31.923Z,87.18
2019-04-03T09:23:37.453Z,87.03
2019-04-03T09:28:42.986Z,88.06
2019-04-03T09:33:48.505Z,87.91
2019-04-03T09:38:57.225Z,88.64
2019-04-03T09:44:02.708Z,89.95
2019-04-03T09:49:08.479Z,88.71
2019-04-03T09:54:16.626Z,85.74
2019-04-03T09:59:22.526Z,83.84
2019-04-03T10:04:28.066Z,82.81
2019-04-03T10:09:33.666Z,83.02
2019-04-03T10:14:39.241Z,83.80
2019-04-03T10:19:46.174Z,87.12
2019-04-03T10:24:52.039Z,88.49
2019-04-03T10:29:57.667Z,89.63
2019-04-03T10:35:03.439Z,90.25
2019-04-03T10:40:10.488Z,91.22
2019-04-03T10:45:17.825Z,92.16
2019-04-03T10:50:24.506Z,92.15
2019-04-03T10:55:30.463Z,91.72
2019-04-03T11:00:36.143Z,91.63
2019-04-03T11:05:41.745Z,90.89
2019-04-03T11:10:49.106Z,89.17
2019-04-03T11:15:54.718Z,88.54
2019-04-03T11:21:00.285Z,89.26
2019-04-03T11:26:05.945Z,88.73
2019-04-03T11:31:24.212Z,88.73
2019-04-03T11:36:18.869Z,85.42
2019-04-03T11:41:24.561Z,80.02
2019-04-03T11:46:31.326Z,75.14
2019-04-03T11:51:36.787Z,73.66
2019-04-03T11:56:45.227Z,75.94
2019-04-03T12:01:51.625Z,73.50
2019-04-03T12:06:57.451Z,69.77
2019-04-03T12:12:03.363Z,72.43
2019-04-03T12:17:09.445Z,67.76
2019-04-03T12:22:15.382Z,70.68
2019-04-03T12:27:23.142Z,63.71
2019-04-03T12:32:37.861Z,61.46
2019-04-03T12:37:36.041Z,58.94
2019-04-03T12:42:42.665Z,55.12
2019-04-03T12:47:48.185Z,57.47
2019-04-03T12:52:53.945Z,57.00
2019-04-03T12:57:59.451Z,65.08
2019-04-03T13:03:05.553Z,71.54
2019-04-03T13:08:11.246Z,76.11
2019-04-03T13:13:17.069Z,76.71
2019-04-03T13:18:22.667Z,76.47
2019-04-03T13:23:28.325Z,73.34
2019-04-03T13:28:35.967Z,65.85
2019-04-03T13:33:41.437Z,67.95
2019-04-03T13:38:47.119Z,69.12
2019-04-03T13:43:54.382Z,66.75
2019-04-03T13:49:00.279Z,64.04
2019-04-03T13:54:08.007Z,65.15
2019-04-03T13:59:14.152Z,69.84
2019-04-03T14:04:22.715Z,69.12
2019-04-03T14:09:27.272Z,71.51
2019-04-03T14:14:35.202Z,68.22
2019-04-03T14:19:46.083Z,67.71
2019-04-03T14:24:52.598Z,68.28
2019-04-03T14:29:59.317Z,65.77
2019-04-03T14:35:31.293Z,63.54
2019-04-03T14:40:13.508Z,64.39
2019-04-03T14:45:19.210Z,64.91
2019-04-03T14:50:25.026Z,65.29
2019-04-03T14:55:30.926Z,67.69
2019-04-03T15:00:38.026Z,67.96
2019-04-03T15:05:44.894Z,67.33
2019-04-03T15:10:50.843Z,67.54
2019-04-03T15:15:58.812Z,68.51
2019-04-03T15:21:03.545Z,70.93
2019-04-03T15:26:09.701Z,72.15
2019-04-03T15:31:15.899Z,71.98
2019-04-03T15:36:21.630Z,70.75
2019-04-03T15:41:28.627Z,70.51
2019-04-03T15:46:35.064Z,74.16
2019-04-03T15:51:40.851Z,73.29
2019-04-03T15:56:50.044Z,74.67
2019-04-03T16:01:56.446Z,75.60
2019-04-03T16:07:02.127Z,74.10
2019-04-03T16:12:07.928Z,75.11
2019-04-03T16:17:13.605Z,76.33
2019-04-03T16:22:19.526Z,76.73
2019-04-03T16:27:28.604Z,77.73
2019-04-03T16:32:34.405Z,77.38
2019-04-03T16:37:40.258Z,76.72
2019-04-03T16:42:47.955Z,75.85
2019-04-03T16:47:53.237Z,75.30
2019-04-03T16:52:58.840Z,76.17
2019-04-03T16:58:04.516Z,73.95
2019-04-03T17:03:10.126Z,74.57
2019-04-03T17:08:15.914Z,75.30
2019-04-03T17:13:21.591Z,72.78
2019-04-03T17:18:27.046Z,72.03
2019-04-03T17:23:32.577Z,75.05
2019-04-03T17:28:40.566Z,74.46
2019-04-03T17:33:45.405Z,73.98
2019-04-03T17:38:50.907Z,74.49
2019-04-03T17:43:56.613Z,71.81
2019-04-03T17:49:02.110Z,72.60
2019-04-03T17:54:08.329Z,73.28
2019-04-03T17:59:14.266Z,73.54
2019-04-03T18:04:20.243Z,75.40
2019-04-03T18:09:26.281Z,73.97
2019-04-03T18:14:32.921Z,74.77
2019-04-03T18:19:41.513Z,73.97
2019-04-03T18:24:45.752Z,73.11
2019-04-03T18:29:51.452Z,73.18
2019-04-03T18:34:56.911Z,73.67
2019-04-03T18:40:02.430Z,74.92
2019-04-03T18:45:24.032Z,76.97
2019-04-03T18:50:19.367Z,76.48
2019-04-03T18:55:25.031Z,75.82
2019-04-03T19:00:31.208Z,75.47
2019-04-03T19:05:36.790Z,76.32
2019-04-03T19:10:42.320Z,78.35
2019-04-03T19:15:47.761Z,79.20
2019-04-03T19:20:53.392Z,79.63
2019-04-03T19:26:00.009Z,80.05
2019-04-03T19:31:08.495Z,80.59
2019-04-03T19:36:13.351Z,80.66
2019-04-03T19:41:18.852Z,77.74
2019-04-03T19:46:24.412Z,75.52
2019-04-03T19:51:29.973Z,75.42
2019-04-03T19:56:35.471Z,74.80
2019-04-03T20:01:41.071Z,84.92
2019-04-03T20:06:47.601Z,88.82
2019-04-03T20:11:53.467Z,90.23
2019-04-03T20:16:59.012Z,90.01
2019-04-03T20:22:07.658Z,89.32
2019-04-03T20:27:13.261Z,88.80
2019-04-03T20:32:20.713Z,88.65
2019-04-03T20:37:26.603Z,89.68
2019-04-03T20:42:32.409Z,89.82
2019-04-03T20:47:37.943Z,90.00
2019-04-03T20:52:45.702Z,89.81
2019-04-03T20:57:55.727Z,89.37
2019-04-03T21:02:57.831Z,89.44
2019-04-03T21:08:03.276Z,90.07
2019-04-03T21:13:09.298Z,90.15
2019-04-03T21:18:15.061Z,90.31
2019-04-03T21:23:20.772Z,90.67
2019-04-03T21:28:32.176Z,91.60
2019-04-03T21:33:37.733Z,92.56
2019-04-03T21:38:45.891Z,93.01
2019-04-03T21:43:51.509Z,93.14
2019-04-03T21:48:57.096Z,93.53
2019-04-03T21:54:02.561Z,93.63
2019-04-03T21:59:10.592Z,93.16
2019-04-03T22:04:15.256Z,92.85
2019-04-03T22:09:20.752Z,93.36
2019-04-03T22:14:26.645Z,93.58
2019-04-03T22:19:32.096Z,93.46
2019-04-03T22:24:37.918Z,93.18
2019-04-03T22:29:43.816Z,93.62
2019-04-03T22:34:49.126Z,93.78
2019-04-03T22:39:54.525Z,94.36
2019-04-03T22:45:00.046Z,94.10
2019-04-03T22:50:05.895Z,93.99
2019-04-03T22:55:12.989Z,93.74
2019-04-03T23:00:18.660Z,93.75
2019-04-03T23:05:24.218Z,94.51
2019-04-03T23:10:36.936Z,94.66
2019-04-03T23:15:42.441Z,94.33
2019-04-03T23:20:48.023Z,94.33
2019-04-03T23:25:53.935Z,94.19
2019-04-03T23:30:59.444Z,93.67
2019-04-03T23:36:04.994Z,93.49
2019-04-03T23:41:10.416Z,93.39
2019-04-03T23:46:16.016Z,93.35
2019-04-03T23:51:23.422Z,93.19
2019-04-03T23:56:28.918Z,93.04
